Brookside Village, Texas
Current Conditions -  °F | °C
As of 3:53 PM on Monday 20 Oct 2014 (Local Time) from KLVJ Reporting Station
Few Clouds Few Clouds  
Wind Chill: 81°   Ceiling: Unl
Heat Index: 82°   Visibility: 10mi
Dew Point: 61°   Wind: 8mph
Humidity: 50%   Direction: 100°E
Pressure: 30"   Gusts: 21mph
Location:  29.5651°N, 95.2786°W
Report Text: KLVJ 202053Z AUTO 10007G18KT 10SM FEW042 27/16 A3000 RMK AO2 SLP157 T02720161 56018
Loading
Personal Weather Stations






























Interactive Weather Map
Tropical Storm Tracking
New forecast layout! Learn more

10-Day Weather Forecast

Advertisements
Track Severe Weather on mobile